Date,TemperatureHighF,TemperatureAvgF,TemperatureLowF,DewpointHighF,DewpointAvgF,DewpointLowF,HumidityHigh,HumidityAvg,HumidityLow,PressureMaxIn,PressureMinIn,WindSpeedMaxMPH,WindSpeedAvgMPH,GustSpeedMaxMPH,PrecipitationSumIn
2013-3-1,56,51,47,38,36,33,67,55,45,30.12,29.86,8,4,14,0.00
2013-3-2,52,50,47,39,37,31,66,61,50,29.97,29.76,16,8,35,0.00
2013-3-3,57,49,44,42,33,24,75,54,28,30.07,29.96,10,5,18,0.00
2013-3-4,56,51,47,43,40,37,83,68,52,30.19,30.06,9,2,14,0.00
2013-3-5,58,53,48,44,38,30,74,57,35,30.18,30.02,14,3,27,0.00
2013-3-6,60,56,53,51,43,29,89,66,33,30.01,29.76,21,10,45,0.22
2013-3-7,55,55,54,54,53,51,97,94,85,29.82,29.75,16,7,27,0.03
2013-3-8,55,54,53,54,53,51,97,96,87,29.82,29.69,21,9,33,0.41
2013-3-9,59,55,53,54,50,46,95,83,65,29.83,29.73,18,8,29,0.00
2013-3-10,57,54,52,54,52,50,96,91,80,29.75,29.63,26,9,39,0.08
2013-3-11,58,54,53,51,48,45,88,80,66,29.67,29.60,14,7,23,0.00
2013-3-12,57,52,48,50,46,42,91,79,60,29.64,29.51,21,10,39,0.21
2013-3-13,53,50,48,51,46,44,95,86,75,29.55,29.28,28,9,44,0.48
2013-3-14,49,47,46,45,43,40,94,87,77,29.31,29.10,15,4,27,0.87
2013-3-15,47,40,34,41,31,24,93,70,53,29.84,29.29,12,6,23,1.12
2013-3-16,47,43,38,29,25,20,60,50,35,30.12,29.85,12,4,16,0.00
2013-3-17,52,47,42,43,33,27,71,57,51,30.11,29.87,18,5,33,0.01
2013-3-18,56,54,50,53,47,38,90,78,57,29.86,29.60,28,16,51,0.16
2013-3-19,57,53,50,44,40,36,78,62,48,29.83,29.71,16,7,30,0.00
2013-3-20,59,51,47,48,38,22,95,65,24,29.83,29.69,10,3,20,0.39
2013-3-21,56,53,50,52,44,35,96,73,46,29.95,29.65,24,12,37,0.04
2013-3-22,57,52,48,46,43,38,84,70,58,29.94,29.89,12,3,22,0.00
2013-3-23,58,54,49,47,41,31,86,65,36,29.95,29.80,9,2,14,0.00
2013-3-24,68,61,56,45,36,25,57,40,20,29.80,29.53,22,7,39,0.00
2013-3-30,57,54,52,53,48,41,96,80,54,29.72,29.56,20,11,41,0.20
2013-3-31,56,54,51,54,49,43,95,82,61,29.77,29.57,20,10,41,0.07